Time;durP1;ratioP1;P1;durP2;ratioP2;P2;SDS_P1;SDS_P2;PMS_P1;PMS_P2;Temp;Humidity;BMP_temperature;BMP_pressure;BME280_temperature;BME280_humidity;BME280_pressure;Samples;Min_cycle;Max_cycle;Signal;HPM_P1;HPM_P2
2022/09/18 00:00:16;;;;;;;1.48;0.90;;;6.20;99.90;;;;;;6198297;23;20024;-85
2022/09/18 00:02:44;;;;;;;1.10;1.00;;;6.20;99.90;;;;;;6188133;23;20020;-85
2022/09/18 00:05:11;;;;;;;1.60;1.10;;;6.20;99.90;;;;;;6217585;23;20031;-86
2022/09/18 00:07:41;;;;;;;1.30;1.20;;;6.20;99.90;;;;;;6213593;23;20021;-86
2022/09/18 00:10:09;;;;;;;1.65;1.55;;;6.10;99.90;;;;;;6188051;23;20518;-86
2022/09/18 00:12:36;;;;;;;1.08;0.95;;;6.00;99.90;;;;;;6220584;23;20024;-87
2022/09/18 00:15:04;;;;;;;1.30;1.20;;;6.10;99.90;;;;;;6199575;23;20027;-86
2022/09/18 00:17:32;;;;;;;2.15;1.27;;;6.20;99.90;;;;;;6213156;22;20024;-88
2022/09/18 00:20:00;;;;;;;1.27;1.02;;;6.20;99.90;;;;;;6248046;23;20021;-87
2022/09/18 00:22:34;;;;;;;3.58;1.17;;;6.20;99.90;;;;;;6188706;23;20479;-86
2022/09/18 00:25:02;;;;;;;1.33;1.20;;;6.20;99.90;;;;;;6243562;22;20029;-88
2022/09/18 00:27:33;;;;;;;1.25;1.15;;;6.20;99.90;;;;;;6213983;23;20027;-87
2022/09/18 00:30:04;;;;;;;0.98;0.98;;;6.30;99.90;;;;;;6187621;23;20025;-86
2022/09/18 00:32:31;;;;;;;1.88;0.68;;;6.30;99.90;;;;;;6199997;23;20447;-86
2022/09/18 00:34:59;;;;;;;2.70;1.23;;;6.30;99.90;;;;;;6164014;23;20020;-86
2022/09/18 00:37:27;;;;;;;1.67;1.52;;;6.20;99.90;;;;;;6232401;23;20020;-86
2022/09/18 00:39:56;;;;;;;3.63;1.35;;;6.20;99.90;;;;;;6222761;23;20013;-86
2022/09/18 00:42:24;;;;;;;8.65;1.60;;;6.30;99.90;;;;;;6164738;23;20017;-86
2022/09/18 00:44:52;;;;;;;9.80;2.55;;;6.10;99.90;;;;;;6189905;23;20512;-86
2022/09/18 00:47:36;;;;;;;0.70;0.70;;;6.20;99.90;;;;;;6188972;23;20349;-87
2022/09/18 00:50:11;;;;;;;1.50;1.00;;;6.20;99.90;;;;;;6186788;23;20038;-86
2022/09/18 00:52:57;;;;;;;1.25;0.98;;;6.20;99.90;;;;;;6237228;23;20024;-86
2022/09/18 00:55:29;;;;;;;1.17;0.80;;;6.20;99.90;;;;;;6223648;23;20416;-88
2022/09/18 00:57:59;;;;;;;5.20;1.38;;;6.20;99.90;;;;;;6214664;23;20024;-86
2022/09/18 01:00:30;;;;;;;3.53;1.42;;;6.20;99.90;;;;;;6212432;23;20036;-88
2022/09/18 01:03:03;;;;;;;1.58;1.45;;;6.20;99.90;;;;;;6163804;23;20013;-87
2022/09/18 01:05:49;;;;;;;1.10;1.00;;;6.20;99.90;;;;;;6215827;23;20570;-86
2022/09/18 01:09:00;;;;;;;7.57;1.35;;;6.30;99.90;;;;;;6237388;23;20031;-86
2022/09/18 01:11:46;;;;;;;1.77;1.35;;;6.20;99.90;;;;;;6181505;23;20571;-88
2022/09/18 01:14:32;;;;;;;3.50;1.35;;;6.20;99.90;;;;;;6157188;23;20035;-86
2022/09/18 01:17:17;;;;;;;4.45;1.20;;;6.20;99.90;;;;;;6218108;23;20467;-84
2022/09/18 01:20:24;;;;;;;1.10;1.00;;;6.20;99.90;;;;;;6248241;23;20008;-87
2022/09/18 01:23:43;;;;;;;2.47;1.52;;;6.30;99.90;;;;;;6122367;23;20025;-85
2022/09/18 01:26:29;;;;;;;2.10;0.85;;;6.30;99.90;;;;;;6163271;23;20028;-85
2022/09/18 01:29:12;;;;;;;1.85;1.02;;;6.20;99.90;;;;;;6237991;22;20025;-85
2022/09/18 01:31:57;;;;;;;1.98;1.88;;;6.30;99.90;;;;;;6223242;23;20009;-88
2022/09/18 01:34:33;;;;;;;0.98;0.98;;;6.30;99.90;;;;;;6262855;22;20047;-85
2022/09/18 01:37:17;;;;;;;2.45;1.13;;;6.40;99.90;;;;;;6186828;23;20020;-85
2022/09/18 01:40:03;;;;;;;2.88;1.17;;;6.50;99.90;;;;;;6179037;23;20028;-85
2022/09/18 01:42:36;;;;;;;1.10;1.00;;;6.50;99.90;;;;;;6164402;23;20031;-85
2022/09/18 01:45:18;;;;;;;1.25;1.13;;;6.70;99.90;;;;;;6164934;23;20021;-85
2022/09/18 01:47:52;;;;;;;1.00;1.00;;;6.50;99.90;;;;;;6158712;23;20029;-86
2022/09/18 01:50:21;;;;;;;2.95;2.22;;;6.50;99.90;;;;;;6206832;23;20036;-85
2022/09/18 01:53:13;;;;;;;1.33;1.23;;;6.60;99.90;;;;;;6212629;23;20044;-85
2022/09/18 01:55:49;;;;;;;4.10;1.10;;;6.60;99.90;;;;;;6131223;23;20032;-87
2022/09/18 01:58:20;;;;;;;0.93;0.93;;;6.60;99.90;;;;;;6182025;23;20029;-87
2022/09/18 02:00:57;;;;;;;1.20;1.10;;;6.50;99.90;;;;;;6156801;23;20032;-88
2022/09/18 02:03:30;;;;;;;2.92;0.90;;;6.60;99.90;;;;;;6132643;23;20264;-87
2022/09/18 02:06:09;;;;;;;1.65;1.55;;;6.80;99.90;;;;;;6170811;23;20032;-86
2022/09/18 02:08:42;;;;;;;2.65;1.38;;;6.60;99.90;;;;;;6189105;23;20031;-86
2022/09/18 02:11:15;;;;;;;0.88;0.88;;;6.70;99.90;;;;;;6191470;23;20318;-85
2022/09/18 02:14:48;;;;;;;1.50;1.40;;;6.70;99.90;;;;;;6156490;23;20021;-89
2022/09/18 02:18:43;;;;;;;3.42;1.10;;;6.70;99.90;;;;;;6163899;23;20017;-88
2022/09/18 02:22:40;;;;;;;1.20;1.10;;;6.80;99.90;;;;;;6052173;23;20347;-85
2022/09/18 02:26:03;;;;;;;;;;;;;;;;;;;;;
2022/09/18 02:33:26;;;;;;;0.93;0.93;;;6.70;99.90;;;;;;6102185;23;20018;-87
2022/09/18 02:37:05;;;;;;;1.23;1.15;;;6.80;99.90;;;;;;6132004;23;20021;-86
2022/09/18 02:40:22;;;;;;;2.38;0.95;;;6.80;99.90;;;;;;6191693;23;20452;-85
2022/09/18 02:43:20;;;;;;;2.40;1.70;;;6.80;99.90;;;;;;6099382;23;20036;-88
2022/09/18 02:46:56;;;;;;;3.50;1.10;;;6.80;99.90;;;;;;6180970;23;20017;-90
2022/09/18 02:49:54;;;;;;;4.13;0.98;;;6.80;99.90;;;;;;6179677;23;20025;-87
2022/09/18 02:52:43;;;;;;;5.63;1.30;;;6.80;99.90;;;;;;6129324;23;20057;-85
2022/09/18 02:56:15;;;;;;;4.35;1.65;;;6.90;99.90;;;;;;6120216;23;20029;-86
2022/09/18 02:59:12;;;;;;;2.72;0.68;;;6.90;99.90;;;;;;6088014;23;20778;-88
2022/09/18 03:01:44;;;;;;;2.20;1.08;;;6.90;99.90;;;;;;6103813;23;20029;-85
2022/09/18 03:04:21;;;;;;;3.30;1.10;;;6.90;99.90;;;;;;6126055;23;20022;-86
2022/09/18 03:07:18;;;;;;;3.42;0.93;;;7.00;99.90;;;;;;6145664;23;20032;-87
2022/09/18 03:10:30;;;;;;;1.48;1.38;;;7.10;99.90;;;;;;6122653;23;20017;-86
2022/09/18 03:13:23;;;;;;;1.30;0.90;;;7.00;99.90;;;;;;6158590;23;20024;-85
2022/09/18 03:15:54;;;;;;;1.77;1.00;;;7.00;99.90;;;;;;6180263;23;20028;-84
2022/09/18 03:18:28;;;;;;;2.47;1.35;;;7.00;99.90;;;;;;6192668;23;20021;-85
2022/09/18 03:21:01;;;;;;;2.10;1.02;;;7.00;99.90;;;;;;6153345;23;20029;-86
2022/09/18 03:24:10;;;;;;;1.58;1.05;;;7.00;99.90;;;;;;6181886;23;20020;-84
2022/09/18 03:26:44;;;;;;;1.98;0.90;;;7.00;99.90;;;;;;6157647;23;20029;-84
2022/09/18 03:29:18;;;;;;;3.55;1.50;;;7.00;99.90;;;;;;6185285;23;20032;-85
2022/09/18 03:32:03;;;;;;;2.22;0.95;;;7.00;99.90;;;;;;6183262;23;20036;-85
2022/09/18 03:34:57;;;;;;;1.52;1.17;;;7.10;99.90;;;;;;6165888;23;20032;-90
2022/09/18 03:38:08;;;;;;;2.78;1.10;;;7.00;99.90;;;;;;6181562;23;20021;-87
2022/09/18 03:41:08;;;;;;;1.02;1.02;;;7.10;99.90;;;;;;6164668;23;20017;-89
2022/09/18 03:43:58;;;;;;;1.70;1.60;;;7.00;99.90;;;;;;6157647;23;20021;-87
2022/09/18 03:47:02;;;;;;;1.73;1.63;;;7.10;99.90;;;;;;6157626;23;20021;-85
2022/09/18 03:53:49;;;;;;;1.25;1.25;;;7.10;99.90;;;;;;6132501;23;20021;-85
2022/09/18 03:56:51;;;;;;;7.23;1.37;;;7.10;99.90;;;;;;6163926;23;20024;-89
2022/09/18 04:00:35;;;;;;;1.65;1.10;;;7.20;99.90;;;;;;6162198;23;20024;-88
2022/09/18 04:03:34;;;;;;;6.40;1.35;;;7.20;99.90;;;;;;6111431;23;20032;-85
2022/09/18 04:07:01;;;;;;;0.93;0.93;;;7.20;99.90;;;;;;6005128;23;20035;-85
2022/09/18 04:10:38;;;;;;;3.92;1.50;;;7.20;99.90;;;;;;5974705;24;20028;-86
2022/09/18 04:14:14;;;;;;;2.13;1.45;;;7.10;99.90;;;;;;5939742;23;20032;-86
2022/09/18 04:20:38;;;;;;;1.83;1.55;;;7.30;99.90;;;;;;6069629;23;20030;-87
2022/09/18 04:23:42;;;;;;;5.97;1.50;;;7.20;99.90;;;;;;6069622;23;20370;-87
2022/09/18 04:26:51;;;;;;;1.40;1.30;;;7.30;99.90;;;;;;6010264;23;20027;-89
2022/09/18 04:30:22;;;;;;;2.45;1.33;;;7.30;99.90;;;;;;6074937;23;20023;-87
2022/09/18 04:33:06;;;;;;;1.05;1.05;;;7.20;99.90;;;;;;6120308;23;20050;-88
2022/09/18 04:36:21;;;;;;;6.90;4.25;;;7.20;99.90;;;;;;6044407;23;20014;-85
2022/09/18 04:43:23;;;;;;;;;;;;;;;;;;;;;
2022/09/18 04:46:40;;;;;;;3.10;1.27;;;7.20;99.90;;;;;;6050762;23;20023;-87
2022/09/18 04:49:41;;;;;;;1.48;1.23;;;7.30;99.90;;;;;;6039424;23;20023;-89
2022/09/18 04:52:18;;;;;;;3.30;1.60;;;7.30;99.90;;;;;;6050094;23;20419;-86
2022/09/18 04:55:31;;;;;;;1.63;1.52;;;7.40;99.90;;;;;;6040313;23;20034;-89
2022/09/18 04:58:34;;;;;;;1.25;1.25;;;7.40;99.90;;;;;;5980830;23;20129;-86
2022/09/18 05:04:24;;;;;;;2.90;1.10;;;7.40;99.90;;;;;;6127180;23;20066;-86
2022/09/18 05:07:22;;;;;;;5.65;1.40;;;7.40;99.90;;;;;;6100009;23;20162;-85
2022/09/18 05:10:27;;;;;;;1.60;1.48;;;7.40;99.90;;;;;;6121649;23;20022;-88
2022/09/18 05:13:16;;;;;;;2.25;1.42;;;7.50;99.90;;;;;;6126758;23;20528;-86
2022/09/18 05:21:32;;;;;;;6.40;1.48;;;7.40;99.90;;;;;;5995376;23;20035;-89
2022/09/18 05:24:32;;;;;;;6.03;1.27;;;7.30;99.90;;;;;;6028593;23;20026;-87
2022/09/18 05:28:29;;;;;;;4.30;1.05;;;7.30;99.90;;;;;;6005655;23;20114;-87
2022/09/18 05:31:42;;;;;;;1.80;1.55;;;7.30;99.90;;;;;;5991202;23;20023;-90
2022/09/18 05:48:16;;;;;;;;;;;;;;;;;;;;;
2022/09/18 06:01:27;;;;;;;3.17;2.60;;;7.40;99.90;;;;;;6194812;22;20373;-84
2022/09/18 06:05:12;;;;;;;1.30;1.20;;;7.40;99.90;;;;;;6027842;23;20019;-87
2022/09/18 06:07:40;;;;;;;3.30;1.50;;;7.60;99.90;;;;;;6028677;23;20068;-88
2022/09/18 06:10:29;;;;;;;1.10;1.00;;;7.50;99.90;;;;;;5946483;23;20064;-85
2022/09/18 06:13:55;;;;;;;1.67;1.58;;;7.50;99.90;;;;;;5919409;24;20025;-86
2022/09/18 06:17:28;;;;;;;1.30;1.20;;;7.50;99.90;;;;;;5905645;23;20028;-85
2022/09/18 06:21:21;;;;;;;1.27;1.10;;;7.50;99.90;;;;;;5917771;24;20031;-89
2022/09/18 06:30:06;;;;;;;3.53;1.60;;;7.40;99.90;;;;;;5903003;23;20032;-87
2022/09/18 06:33:18;;;;;;;1.80;1.70;;;7.50;99.90;;;;;;5976764;23;20076;-86
2022/09/18 06:36:36;;;;;;;1.90;1.45;;;7.60;99.90;;;;;;5979697;23;20030;-88
2022/09/18 06:39:47;;;;;;;2.05;1.42;;;7.40;99.90;;;;;;5922663;24;20083;-84
2022/09/18 06:43:02;;;;;;;4.00;1.52;;;7.40;99.90;;;;;;5980265;23;20019;-85
2022/09/18 06:46:11;;;;;;;3.55;1.70;;;7.50;99.90;;;;;;5981421;23;20028;-84
2022/09/18 06:49:54;;;;;;;3.08;1.95;;;7.50;99.90;;;;;;6049132;23;20842;-86
2022/09/18 06:57:35;;;;;;;;;;;;;;;;;;;;;
2022/09/18 07:04:15;;;;;;;3.20;2.03;;;7.50;99.90;;;;;;6097612;23;20516;-86
2022/09/18 07:07:44;;;;;;;1.80;1.55;;;7.60;99.90;;;;;;6040647;23;20019;-86
2022/09/18 07:10:45;;;;;;;1.70;1.60;;;7.60;99.90;;;;;;5995453;23;20031;-87
2022/09/18 07:13:15;;;;;;;3.35;3.00;;;7.60;99.90;;;;;;5950247;24;20029;-86
2022/09/18 07:15:48;;;;;;;3.15;1.38;;;7.70;99.90;;;;;;5937189;24;20089;-86
2022/09/18 07:18:16;;;;;;;3.30;3.10;;;7.70;99.90;;;;;;5987998;23;20023;-86
2022/09/18 07:20:52;;;;;;;4.10;1.40;;;7.60;99.90;;;;;;6041282;23;20031;-87
2022/09/18 07:24:10;;;;;;;1.85;1.75;;;7.70;99.90;;;;;;6012261;23;20023;-86
2022/09/18 07:26:39;;;;;;;1.52;1.30;;;7.60;99.90;;;;;;6013183;23;20022;-87
2022/09/18 07:29:08;;;;;;;4.22;1.83;;;7.60;99.90;;;;;;6034914;23;20027;-82
2022/09/18 07:31:43;;;;;;;2.03;1.27;;;7.70;99.90;;;;;;5989154;23;20490;-88
2022/09/18 07:34:58;;;;;;;1.45;1.35;;;7.70;99.90;;;;;;6107359;23;20032;-83
2022/09/18 07:37:40;;;;;;;1.55;1.45;;;7.70;99.90;;;;;;6157439;23;20026;-89
2022/09/18 07:40:19;;;;;;;8.18;1.65;;;7.90;99.90;;;;;;6112325;23;20453;-84
2022/09/18 07:43:14;;;;;;;4.68;1.38;;;7.90;99.90;;;;;;6194703;23;20020;-86
2022/09/18 07:45:51;;;;;;;2.03;1.40;;;7.90;99.90;;;;;;6209934;22;20468;-86
2022/09/18 07:48:18;;;;;;;1.60;1.50;;;8.00;99.90;;;;;;6166930;23;20040;-87
2022/09/18 07:50:56;;;;;;;5.00;1.58;;;8.00;99.90;;;;;;6184467;23;20020;-88
2022/09/18 07:54:06;;;;;;;2.85;1.40;;;8.00;99.90;;;;;;6166205;23;20035;-90
2022/09/18 07:57:00;;;;;;;4.75;1.60;;;8.00;99.90;;;;;;6154711;23;20025;-88
2022/09/18 07:59:45;;;;;;;5.25;2.13;;;8.00;99.90;;;;;;6207287;23;20024;-89
2022/09/18 08:02:13;;;;;;;3.58;1.73;;;8.00;99.90;;;;;;6153385;23;20021;-86
2022/09/18 08:04:43;;;;;;;2.45;1.75;;;8.00;99.90;;;;;;6179052;23;20722;-91
2022/09/18 08:07:43;;;;;;;6.45;4.22;;;8.00;99.90;;;;;;6165449;23;20326;-89
2022/09/18 08:10:43;;;;;;;4.00;2.78;;;8.00;99.90;;;;;;6093028;23;20445;-90
2022/09/18 08:13:31;;;;;;;2.15;1.58;;;8.00;99.90;;;;;;6156997;23;20028;-91
2022/09/18 08:16:24;;;;;;;1.73;1.10;;;8.00;99.90;;;;;;6162329;23;20026;-89
2022/09/18 08:19:23;;;;;;;1.67;1.58;;;8.00;99.90;;;;;;6107327;23;20024;-90
2022/09/18 08:27:03;;;;;;;1.00;1.00;;;8.00;99.90;;;;;;6153669;23;20020;-91
2022/09/18 08:29:57;;;;;;;1.20;1.10;;;8.10;99.90;;;;;;6184701;23;20485;-92
2022/09/18 08:41:06;;;;;;;;;;;;;;;;;;;;;
2022/09/18 08:48:40;;;;;;;1.95;1.30;;;8.10;99.90;;;;;;6201641;23;19919;-88
2022/09/18 08:55:52;;;;;;;1.08;1.08;;;8.10;99.90;;;;;;6237751;23;20032;-91
2022/09/18 09:00:13;;;;;;;1.30;1.20;;;8.30;99.90;;;;;;6125928;23;20025;-91
2022/09/18 09:07:01;;;;;;;2.78;1.80;;;8.40;99.90;;;;;;6225189;23;20025;-89
2022/09/18 09:10:50;;;;;;;1.67;1.58;;;8.40;99.90;;;;;;6144865;23;20036;-91
2022/09/18 09:13:48;;;;;;;;;;;8.50;99.90;;;;;;6175508;23;20040;-89
2022/09/18 09:17:13;;;;;;;5.22;1.27;;;8.40;99.90;;;;;;6065091;23;19924;-93
2022/09/18 09:20:19;;;;;;;1.00;1.00;;;8.40;99.90;;;;;;6079092;23;20015;31
2022/09/18 09:26:47;;;;;;;1.75;1.65;;;8.40;99.90;;;;;;6187127;23;20025;-89
2022/09/18 09:29:45;;;;;;;2.70;2.58;;;8.40;99.90;;;;;;6134329;23;20021;-89
2022/09/18 09:33:17;;;;;;;2.88;1.58;;;8.50;99.90;;;;;;6166399;23;20017;-89
2022/09/18 09:36:35;;;;;;;2.85;2.45;;;8.40;99.90;;;;;;6079213;23;20042;-91
2022/09/18 10:10:40;;;;;;;;;;;;;;;;;;;;;
2022/09/18 10:25:56;;;;;;;1.63;1.52;;;8.80;99.90;;;;;;6236926;23;20024;-85
2022/09/18 10:33:51;;;;;;;4.18;2.08;;;8.80;99.90;;;;;;6155685;23;20024;-86
2022/09/18 10:42:04;;;;;;;7.60;1.73;;;8.90;99.90;;;;;;6104921;23;20024;-87
2022/09/18 10:44:57;;;;;;;2.88;1.40;;;9.00;99.90;;;;;;6190670;23;20357;-86
2022/09/18 10:47:32;;;;;;;1.75;1.65;;;8.90;99.90;;;;;;6169892;23;20016;-85
2022/09/18 10:50:10;;;;;;;4.03;1.40;;;9.10;99.90;;;;;;6160851;23;20353;-83
2022/09/18 10:52:45;;;;;;;1.67;1.20;;;9.00;99.90;;;;;;6158901;23;20036;-84
2022/09/18 10:55:25;;;;;;;2.10;1.50;;;9.00;99.90;;;;;;6194984;23;20467;-85
2022/09/18 10:58:24;;;;;;;1.65;1.55;;;9.10;99.90;;;;;;6183486;23;20021;-84
2022/09/18 11:01:05;;;;;;;1.38;1.27;;;9.10;99.90;;;;;;6164282;23;20033;-83
2022/09/18 11:03:48;;;;;;;1.17;1.15;;;9.10;99.90;;;;;;6134658;23;20024;-87
2022/09/18 11:07:03;;;;;;;;;;;;;;;;;;;;;
2022/09/18 11:10:10;;;;;;;1.50;1.40;;;9.10;99.90;;;;;;6184541;23;20017;-87
2022/09/18 11:13:54;;;;;;;2.20;1.20;;;9.10;99.90;;;;;;6146848;23;20028;-87
2022/09/18 11:20:19;;;;;;;2.85;2.45;;;9.40;99.90;;;;;;6094642;23;20028;-87
2022/09/18 11:23:33;;;;;;;3.22;1.40;;;9.30;99.90;;;;;;6193050;23;20013;-85
2022/09/18 11:27:38;;;;;;;1.70;1.40;;;9.40;99.90;;;;;;6143508;23;20326;-88
2022/09/18 11:30:37;;;;;;;1.75;1.33;;;9.40;99.90;;;;;;6180365;23;20032;-84
2022/09/18 11:33:34;;;;;;;1.30;1.23;;;9.30;99.90;;;;;;6163246;23;20025;-86
2022/09/18 11:36:42;;;;;;;1.60;1.50;;;9.30;99.90;;;;;;6189987;23;20309;-86
2022/09/18 11:39:33;;;;;;;1.13;1.13;;;9.30;99.90;;;;;;6118364;23;20021;-86
2022/09/18 11:42:47;;;;;;;1.85;1.75;;;9.20;99.90;;;;;;6162726;23;20032;-86
2022/09/18 12:09:16;;;;;;;;;;;;;;;;;;;;;
2022/09/18 12:20:09;;;;;;;1.00;1.00;;;9.70;99.90;;;;;;6240448;23;20024;-86
2022/09/18 12:23:50;;;;;;;1.65;1.55;;;9.60;99.90;;;;;;6223313;23;20028;-88
2022/09/18 12:27:55;;;;;;;1.42;1.33;;;9.60;99.90;;;;;;6125842;23;20727;31
2022/09/18 12:32:46;;;;;;;4.53;1.80;;;9.70;99.90;;;;;;6083688;23;20030;-88
2022/09/18 12:36:06;;;;;;;;;;;;;;;;;;;;;
2022/09/18 12:39:47;;;;;;;2.58;1.10;;;10.00;99.90;;;;;;5984111;23;20561;-86
2022/09/18 12:58:38;;;;;;;1.00;0.85;;;10.10;99.90;;;;;;6046134;23;20166;-86
2022/09/18 13:02:24;;;;;;;;;;;10.20;99.90;;;;;;6028201;23;20027;-89
2022/09/18 13:06:15;;;;;;;2.83;1.33;;;10.10;99.90;;;;;;6042580;23;19917;-88
2022/09/18 13:10:35;;;;;;;0.80;0.80;;;9.90;99.90;;;;;;5993526;23;20020;-86
2022/09/18 13:13:47;;;;;;;2.88;1.40;;;10.00;99.90;;;;;;5913692;24;20025;-86
2022/09/18 13:17:18;;;;;;;1.35;1.25;;;10.00;99.90;;;;;;5929376;24;20033;-88
2022/09/18 13:20:38;;;;;;;1.85;1.33;;;10.00;99.90;;;;;;5821310;24;20045;-87
2022/09/18 13:29:37;;;;;;;5.68;1.50;;;10.20;99.90;;;;;;5925978;24;20028;-86
2022/09/18 13:46:23;;;;;;;1.73;0.88;;;9.70;99.90;;;;;;5932983;23;20031;-87
2022/09/18 13:50:17;;;;;;;0.63;0.63;;;9.70;99.90;;;;;;5955001;24;20024;-86
2022/09/18 13:53:54;;;;;;;0.80;0.80;;;9.70;99.90;;;;;;5953497;23;20033;-88
2022/09/18 13:56:49;;;;;;;0.82;0.82;;;9.80;99.90;;;;;;5939985;24;20031;-86
2022/09/18 13:59:51;;;;;;;1.35;1.25;;;10.00;99.90;;;;;;5952035;23;20058;-89
2022/09/18 14:03:18;;;;;;;0.85;0.85;;;10.20;99.90;;;;;;5989683;23;20032;-91
2022/09/18 14:06:52;;;;;;;0.93;0.93;;;10.40;99.90;;;;;;5896491;24;20029;-86
2022/09/18 14:18:23;;;;;;;4.63;1.10;;;10.70;99.90;;;;;;6034908;23;20031;-84
2022/09/18 14:21:15;;;;;;;2.78;0.80;;;11.00;99.90;;;;;;6040775;23;20034;-84
2022/09/18 14:23:45;;;;;;;1.65;1.55;;;11.00;99.90;;;;;;6044862;23;20688;-85
2022/09/18 14:26:28;;;;;;;0.70;0.70;;;11.00;99.90;;;;;;6010850;23;20023;-86
2022/09/18 14:29:50;;;;;;;1.95;0.65;;;11.00;99.90;;;;;;6054980;23;20350;-92
2022/09/18 14:36:45;;;;;;;1.88;1.10;;;11.00;99.90;;;;;;6071813;23;20038;-89
2022/09/18 14:39:55;;;;;;;;;;;;;;;;;;;;;
2022/09/18 14:43:41;;;;;;;2.67;1.30;;;10.90;99.90;;;;;;6018321;23;20068;-88
2022/09/18 14:47:16;;;;;;;0.70;0.70;;;10.80;99.90;;;;;;6017913;23;20026;-91
2022/09/18 14:49:54;;;;;;;0.70;0.70;;;10.80;99.90;;;;;;6061898;23;20025;-88
2022/09/18 14:52:41;;;;;;;1.15;0.90;;;10.70;99.90;;;;;;6071138;23;20027;-88
2022/09/18 14:55:16;;;;;;;0.80;0.80;;;10.70;99.90;;;;;;6105957;23;20025;-87
2022/09/18 14:58:33;;;;;;;0.82;0.82;;;10.70;99.90;;;;;;6122722;23;20018;-89
2022/09/18 15:01:27;;;;;;;0.70;0.70;;;10.70;99.90;;;;;;6073607;23;20032;-88
2022/09/18 15:05:01;;;;;;;;;;;;;;;;;;;;;
2022/09/18 15:08:34;;;;;;;0.85;0.85;;;10.70;99.90;;;;;;5922898;24;20028;-89
2022/09/18 15:21:34;;;;;;;0.70;0.70;;;10.60;99.90;;;;;;5994664;23;20463;-89
2022/09/18 15:25:33;;;;;;;3.28;0.88;;;10.50;99.90;;;;;;5989512;23;20487;-91
2022/09/18 15:33:24;;;;;;;1.15;1.08;;;10.40;99.90;;;;;;6022794;23;20034;-87
2022/09/18 15:35:59;;;;;;;;;;;10.40;99.90;;;;;;6035417;23;20023;-84
2022/09/18 15:39:13;;;;;;;1.38;0.82;;;10.40;99.90;;;;;;6044591;23;19932;-88
2022/09/18 15:41:50;;;;;;;;;;;10.40;99.90;;;;;;5993410;23;20024;-85
2022/09/18 15:44:50;;;;;;;1.08;0.88;;;10.40;99.90;;;;;;6058724;23;19940;-88
2022/09/18 15:47:31;;;;;;;1.35;0.68;;;10.40;99.90;;;;;;6038543;23;20390;-83
2022/09/18 15:50:00;;;;;;;1.43;1.00;;;10.40;99.90;;;;;;6088783;23;20027;-84
2022/09/18 15:52:36;;;;;;;3.13;0.85;;;10.40;99.90;;;;;;6088102;23;20258;-82
2022/09/18 15:55:11;;;;;;;1.85;0.98;;;10.30;99.90;;;;;;6102976;23;20023;-82
2022/09/18 15:57:50;;;;;;;2.75;0.90;;;10.40;99.90;;;;;;6112992;23;20026;-83
2022/09/18 16:00:20;;;;;;;1.40;0.98;;;10.30;99.90;;;;;;6107318;23;20018;-83
2022/09/18 16:02:58;;;;;;;1.38;0.90;;;10.30;99.90;;;;;;6134263;23;20441;-82
2022/09/18 16:05:30;;;;;;;1.98;1.15;;;10.20;99.90;;;;;;6129073;23;20018;-83
2022/09/18 16:07:59;;;;;;;1.40;1.10;;;10.20;99.90;;;;;;6134850;23;20057;-83
2022/09/18 16:10:33;;;;;;;2.70;0.85;;;10.30;99.90;;;;;;6135280;23;20317;-83
2022/09/18 16:13:05;;;;;;;1.00;1.00;;;10.20;99.90;;;;;;6123557;23;20029;-82
2022/09/18 16:15:34;;;;;;;2.83;0.85;;;10.20;99.90;;;;;;6134444;23;20033;-83
2022/09/18 16:18:14;;;;;;;1.45;1.02;;;10.10;99.90;;;;;;6124403;23;20026;-84
2022/09/18 16:21:00;;;;;;;1.20;0.80;;;10.10;99.90;;;;;;6123108;23;20018;-83
2022/09/18 16:23:49;;;;;;;2.30;0.82;;;10.20;99.90;;;;;;6123270;23;20021;-84
2022/09/18 16:26:27;;;;;;;0.70;0.70;;;10.20;99.90;;;;;;6125071;23;20611;-82
2022/09/18 16:28:57;;;;;;;0.68;0.60;;;10.20;99.90;;;;;;6128585;23;20022;-82
2022/09/18 16:31:31;;;;;;;2.60;0.77;;;10.10;99.90;;;;;;6134556;23;20014;-83
2022/09/18 16:34:46;;;;;;;1.90;1.10;;;10.20;99.90;;;;;;6094545;23;20262;-84
2022/09/18 16:37:16;;;;;;;;;;;10.10;99.90;;;;;;6129403;23;20026;-84
2022/09/18 16:39:43;;;;;;;3.60;0.70;;;10.10;99.90;;;;;;6135175;23;19930;-84
2022/09/18 16:42:17;;;;;;;0.90;0.90;;;10.00;99.90;;;;;;6123888;23;20030;-84
2022/09/18 16:44:45;;;;;;;0.63;0.63;;;10.00;99.90;;;;;;6105007;23;20026;-82
2022/09/18 16:47:14;;;;;;;1.83;1.27;;;10.00;99.90;;;;;;6135676;23;20684;-84
2022/09/18 16:49:45;;;;;;;0.70;0.70;;;10.00;99.90;;;;;;6126100;23;20022;-83
2022/09/18 16:52:52;;;;;;;1.13;0.98;;;10.00;99.90;;;;;;6131990;23;20026;-84
2022/09/18 16:55:21;;;;;;;1.40;1.00;;;10.00;99.90;;;;;;6124560;23;20445;-86
2022/09/18 16:57:51;;;;;;;2.42;1.40;;;10.00;99.90;;;;;;6074767;23;20026;-85
2022/09/18 17:00:18;;;;;;;0.93;0.93;;;10.00;99.90;;;;;;6099240;23;20021;-87
2022/09/18 17:02:49;;;;;;;2.10;1.25;;;10.00;99.90;;;;;;6133357;23;20018;-87
2022/09/18 17:05:17;;;;;;;0.80;0.80;;;10.00;99.90;;;;;;6104370;23;20025;-88
2022/09/18 17:07:44;;;;;;;2.17;1.45;;;10.00;99.90;;;;;;6135386;23;20595;-87
2022/09/18 17:10:14;;;;;;;1.50;0.85;;;9.90;99.90;;;;;;6099571;23;20021;-86
2022/09/18 17:12:42;;;;;;;2.42;1.20;;;9.90;99.90;;;;;;6074854;23;20342;-86
2022/09/18 17:15:15;;;;;;;5.28;1.23;;;10.00;99.90;;;;;;6109992;23;20450;-86
2022/09/18 17:17:44;;;;;;;0.73;0.73;;;9.80;99.90;;;;;;6123834;23;20029;-86
2022/09/18 17:20:17;;;;;;;1.27;1.17;;;9.80;99.90;;;;;;6098994;23;20014;-88
2022/09/18 17:22:51;;;;;;;1.67;0.93;;;9.80;99.90;;;;;;6099660;23;20334;-87
2022/09/18 17:25:18;;;;;;;3.25;1.20;;;9.80;99.90;;;;;;6127568;23;20018;-88
2022/09/18 17:27:49;;;;;;;1.35;1.20;;;9.80;99.90;;;;;;6108454;23;20447;-87
2022/09/18 17:30:17;;;;;;;5.03;1.13;;;10.00;99.90;;;;;;6123693;23;20019;-86
2022/09/18 17:32:47;;;;;;;6.35;2.05;;;9.80;99.90;;;;;;6130937;23;20013;-86
2022/09/18 17:35:16;;;;;;;1.38;1.27;;;9.80;99.90;;;;;;6096458;23;20022;-88
2022/09/18 17:37:43;;;;;;;0.93;0.80;;;9.80;99.90;;;;;;6126024;23;20018;-89
2022/09/18 17:40:11;;;;;;;2.38;0.95;;;9.80;99.90;;;;;;6098875;23;20026;-87
2022/09/18 17:42:38;;;;;;;3.03;0.95;;;9.80;99.90;;;;;;6134430;23;20018;-85
2022/09/18 17:45:06;;;;;;;1.05;0.82;;;9.80;99.90;;;;;;6129967;23;20025;-89
2022/09/18 17:47:35;;;;;;;2.28;0.85;;;9.70;99.90;;;;;;6124203;23;20014;-85
2022/09/18 17:50:04;;;;;;;2.00;1.02;;;9.70;99.90;;;;;;6122937;23;20025;-85
2022/09/18 17:53:03;;;;;;;1.27;1.17;;;9.70;99.90;;;;;;6131156;23;20492;-85
2022/09/18 17:55:32;;;;;;;3.92;1.30;;;9.70;99.90;;;;;;6133569;23;20010;-84
2022/09/18 17:57:59;;;;;;;4.22;1.17;;;9.70;99.90;;;;;;6126329;23;20022;-85
2022/09/18 18:00:27;;;;;;;0.70;0.70;;;9.80;99.90;;;;;;6130574;23;20018;-85
2022/09/18 18:02:54;;;;;;;5.68;1.23;;;9.70;99.90;;;;;;6134336;23;20018;-83
2022/09/18 18:05:22;;;;;;;1.40;0.80;;;9.60;99.90;;;;;;6126762;23;20022;-84
2022/09/18 18:07:49;;;;;;;11.07;1.80;;;9.60;99.90;;;;;;6133140;23;20029;-84
2022/09/18 18:10:17;;;;;;;1.27;1.17;;;9.60;99.90;;;;;;6124454;23;20045;-84
2022/09/18 18:12:44;;;;;;;5.78;1.33;;;9.50;99.90;;;;;;6122870;23;20049;-84
2022/09/18 18:15:12;;;;;;;1.55;1.45;;;9.60;99.90;;;;;;6095516;23;20040;-84
2022/09/18 18:17:41;;;;;;;1.25;1.13;;;9.60;99.90;;;;;;6107261;23;20044;-84
2022/09/18 18:20:09;;;;;;;1.25;1.15;;;9.60;99.90;;;;;;6161482;23;20024;-83
2022/09/18 18:22:36;;;;;;;2.70;1.60;;;9.60;99.90;;;;;;6153003;23;20040;-84
2022/09/18 18:25:05;;;;;;;3.20;0.80;;;9.60;99.90;;;;;;6152568;23;20341;-84
2022/09/18 18:27:33;;;;;;;1.30;1.20;;;9.60;99.90;;;;;;6137552;23;20476;-84
2022/09/18 18:30:00;;;;;;;0.90;0.90;;;9.60;99.90;;;;;;6103948;23;20024;-84
2022/09/18 18:32:28;;;;;;;16.25;4.75;;;9.60;99.90;;;;;;6103677;23;20021;-84
2022/09/18 18:34:55;;;;;;;2.00;1.42;;;9.60;99.90;;;;;;6100235;23;20314;-84
2022/09/18 18:37:23;;;;;;;2.92;1.55;;;9.60;99.90;;;;;;6155393;23;20029;-84
2022/09/18 18:39:50;;;;;;;1.25;1.00;;;9.60;99.90;;;;;;6152383;23;20014;-85
2022/09/18 18:42:17;;;;;;;3.42;2.13;;;9.60;99.90;;;;;;6123000;23;20488;-83
2022/09/18 18:44:45;;;;;;;2.45;2.28;;;9.50;99.90;;;;;;6156320;23;20032;-83
2022/09/18 18:47:12;;;;;;;0.93;0.90;;;9.60;99.90;;;;;;6159197;23;20017;-84
2022/09/18 18:49:40;;;;;;;3.47;1.58;;;9.60;99.90;;;;;;6150708;23;20353;-84
2022/09/18 18:52:08;;;;;;;1.23;1.15;;;9.60;99.90;;;;;;6123084;23;20025;-85
2022/09/18 18:54:35;;;;;;;2.33;2.15;;;9.50;99.90;;;;;;6100298;23;20064;-83
2022/09/18 18:57:07;;;;;;;1.17;1.10;;;9.60;99.90;;;;;;6150000;23;20021;-83
2022/09/18 18:59:35;;;;;;;;;;;9.50;99.90;;;;;;6127205;23;20028;-83
2022/09/18 19:02:02;;;;;;;1.15;0.93;;;9.50;99.90;;;;;;6126506;23;19920;-83
2022/09/18 19:04:29;;;;;;;2.17;1.13;;;9.50;99.90;;;;;;6151890;23;20042;-84
2022/09/18 19:06:57;;;;;;;2.55;1.23;;;9.60;99.90;;;;;;6160631;23;20468;-83
2022/09/18 19:09:27;;;;;;;1.00;1.00;;;9.50;99.90;;;;;;6128532;23;20040;-82
2022/09/18 19:11:55;;;;;;;1.30;1.20;;;9.50;99.90;;;;;;6125406;23;20018;-83
2022/09/18 19:14:24;;;;;;;3.65;1.52;;;9.60;99.90;;;;;;6162569;23;20014;-83
2022/09/18 19:16:53;;;;;;;4.00;1.33;;;9.50;99.90;;;;;;6131505;23;20483;-82
2022/09/18 19:19:23;;;;;;;1.63;1.52;;;9.50;99.90;;;;;;6161931;23;20014;-84
2022/09/18 19:21:51;;;;;;;2.20;1.70;;;9.50;99.90;;;;;;6151728;23;20026;-84